createdAt,value
2018-12-22T00:00:11.014Z,17.40
2018-12-22T00:04:56.485Z,16.57
2018-12-22T00:09:42.213Z,17.83
2018-12-22T00:14:27.540Z,19.70
2018-12-22T00:19:11.817Z,22.50
2018-12-22T00:23:59.425Z,20.20
2018-12-22T00:28:44.675Z,20.40
2018-12-22T00:33:29.176Z,20.27
2018-12-22T00:38:14.731Z,22.47
2018-12-22T00:42:58.966Z,22.00
2018-12-22T00:47:44.984Z,20.87
2018-12-22T00:52:30.729Z,22.97
2018-12-22T00:57:17.670Z,23.40
2018-12-22T01:02:01.987Z,25.53
2018-12-22T01:06:48.046Z,23.10
2018-12-22T01:11:33.248Z,22.27
2018-12-22T01:16:18.229Z,22.40
2018-12-22T01:21:03.897Z,21.60
2018-12-22T01:25:51.881Z,19.30
2018-12-22T01:30:37.118Z,17.30
2018-12-22T01:35:23.005Z,17.53
2018-12-22T01:40:08.416Z,20.00
2018-12-22T01:44:52.624Z,16.57
2018-12-22T01:49:37.184Z,12.10
2018-12-22T01:54:23.079Z,12.83
2018-12-22T01:59:07.386Z,13.17
2018-12-22T02:03:52.897Z,12.37
2018-12-22T02:08:38.804Z,12.87
2018-12-22T02:13:23.951Z,11.83
2018-12-22T02:18:08.035Z,12.77
2018-12-22T02:22:53.859Z,14.97
2018-12-22T02:27:39.577Z,11.53
2018-12-22T02:32:25.755Z,11.10
2018-12-22T02:37:10.792Z,11.83
2018-12-22T02:41:56.465Z,11.77
2018-12-22T02:46:41.747Z,11.50
2018-12-22T02:51:26.947Z,10.63
2018-12-22T02:56:12.510Z,10.90
2018-12-22T03:00:57.830Z,12.80
2018-12-22T03:05:44.628Z,31.17
2018-12-22T03:10:29.893Z,29.83
2018-12-22T03:15:15.035Z,21.97
2018-12-22T03:20:00.685Z,14.47
2018-12-22T03:24:46.160Z,12.80
2018-12-22T03:29:31.751Z,11.33
2018-12-22T03:34:17.762Z,14.00
2018-12-22T03:39:02.267Z,13.80
2018-12-22T03:43:48.679Z,12.13
2018-12-22T03:48:32.984Z,10.70
2018-12-22T03:53:19.836Z,11.57
2018-12-22T03:58:04.247Z,10.07
2018-12-22T04:02:50.479Z,10.93
2018-12-22T04:07:34.923Z,8.83
2018-12-22T04:12:20.468Z,8.43
2018-12-22T04:17:05.808Z,9.10
2018-12-22T04:21:51.104Z,8.30
2018-12-22T04:26:40.036Z,10.03
2018-12-22T04:31:25.758Z,15.37
2018-12-22T04:36:14.211Z,11.13
2018-12-22T04:40:59.447Z,12.93
2018-12-22T04:45:45.691Z,13.87
2018-12-22T04:50:29.984Z,10.57
2018-12-22T04:55:18.310Z,11.93
2018-12-22T05:00:04.229Z,12.03
2018-12-22T05:04:52.229Z,12.53
2018-12-22T05:09:37.834Z,10.63
2018-12-22T05:14:22.657Z,11.40
2018-12-22T05:19:07.883Z,13.17
2018-12-22T05:23:52.091Z,13.63
2018-12-22T05:28:37.640Z,13.67
2018-12-22T05:33:26.001Z,12.73
2018-12-22T05:38:10.306Z,13.80
2018-12-22T05:42:56.778Z,15.70
2018-12-22T05:47:43.681Z,19.80
2018-12-22T05:52:32.203Z,28.03
2018-12-22T05:57:16.722Z,24.07
2018-12-22T06:02:01.261Z,17.23
2018-12-22T06:06:50.281Z,13.83
2018-12-22T06:11:37.168Z,12.30
2018-12-22T06:16:22.931Z,13.17
2018-12-22T06:21:09.528Z,12.70
2018-12-22T06:25:54.753Z,20.00
2018-12-22T06:30:39.992Z,40.43
2018-12-22T06:35:25.437Z,34.57
2018-12-22T06:40:09.601Z,35.40
2018-12-22T06:44:55.201Z,39.03
2018-12-22T06:49:39.452Z,47.47
2018-12-22T06:54:25.163Z,60.10
2018-12-22T06:59:09.440Z,53.50
2018-12-22T07:03:55.727Z,54.07
2018-12-22T07:08:41.393Z,46.30
2018-12-22T07:13:27.415Z,48.77
2018-12-22T07:18:13.315Z,50.83
2018-12-22T07:23:00.611Z,47.93
2018-12-22T07:27:45.821Z,47.67
2018-12-22T07:32:30.941Z,37.77
2018-12-22T07:37:17.450Z,51.53
2018-12-22T07:42:01.790Z,64.00
2018-12-22T07:46:46.429Z,40.60
2018-12-22T07:51:36.255Z,38.23
2018-12-22T07:56:22.010Z,40.30
2018-12-22T08:01:08.457Z,31.50
2018-12-22T08:05:52.656Z,47.80
2018-12-22T08:10:37.082Z,51.47
2018-12-22T08:15:24.024Z,45.93
2018-12-22T08:20:14.432Z,37.10
2018-12-22T08:25:02.069Z,55.57
2018-12-22T08:29:47.775Z,28.87
2018-12-22T08:34:34.002Z,23.23
2018-12-22T08:39:19.056Z,19.30
2018-12-22T08:44:04.443Z,19.70
2018-12-22T08:48:49.114Z,19.13
2018-12-22T08:53:35.593Z,21.40
2018-12-22T08:58:26.444Z,22.83
2018-12-22T09:03:11.264Z,32.93
2018-12-22T09:07:55.808Z,31.27
2018-12-22T09:12:45.479Z,30.10
2018-12-22T09:17:30.140Z,39.20
2018-12-22T09:22:16.316Z,34.83
2018-12-22T09:27:00.807Z,34.60
2018-12-22T09:31:45.053Z,32.20
2018-12-22T09:36:35.081Z,33.97
2018-12-22T09:41:20.730Z,38.40
2018-12-22T09:46:06.643Z,41.33
2018-12-22T09:50:52.308Z,66.20
2018-12-22T09:55:38.037Z,58.13
2018-12-22T10:00:24.091Z,39.83
2018-12-22T10:05:10.115Z,47.73
2018-12-22T10:09:54.875Z,43.23
2018-12-22T10:14:41.512Z,44.37
2018-12-22T10:19:25.800Z,46.00
2018-12-22T10:24:10.992Z,46.10
2018-12-22T10:28:56.553Z,46.07
2018-12-22T10:33:41.359Z,51.63
2018-12-22T10:38:26.954Z,38.60
2018-12-22T10:43:11.542Z,35.47
2018-12-22T10:47:56.741Z,44.93
2018-12-22T10:52:42.831Z,33.57
2018-12-22T10:57:29.316Z,29.87
2018-12-22T11:02:18.674Z,28.10
2018-12-22T11:07:08.124Z,30.17
2018-12-22T11:11:53.749Z,29.27
2018-12-22T11:16:39.825Z,27.33
2018-12-22T11:21:25.344Z,26.70
2018-12-22T11:26:10.448Z,29.20
2018-12-22T11:30:56.724Z,28.67
2018-12-22T11:35:46.894Z,30.53
2018-12-22T11:40:32.437Z,30.03
2018-12-22T11:45:17.869Z,27.67
2018-12-22T11:50:03.207Z,27.00
2018-12-22T11:54:47.721Z,26.20
2018-12-22T11:59:32.704Z,22.70
2018-12-22T12:04:19.016Z,23.73
2018-12-22T12:09:04.210Z,22.73
2018-12-22T12:13:48.709Z,35.10
2018-12-22T12:19:38.732Z,26.47
2018-12-22T12:24:24.960Z,23.33
2018-12-22T12:29:10.144Z,21.07
2018-12-22T12:33:55.645Z,20.53
2018-12-22T12:38:41.634Z,23.27
2018-12-22T12:43:26.634Z,25.10
2018-12-22T12:48:18.218Z,29.10
2018-12-22T12:53:09.572Z,28.90
2018-12-22T12:57:49.910Z,33.10
2018-12-22T13:02:34.298Z,27.97
2018-12-22T13:07:18.630Z,26.27
2018-12-22T13:12:12.309Z,40.17
2018-12-22T13:16:56.748Z,34.87
2018-12-22T13:21:45.260Z,63.13
2018-12-22T13:26:36.816Z,46.33
2018-12-22T13:31:20.651Z,29.87
2018-12-22T13:36:05.268Z,25.60
2018-12-22T13:40:51.133Z,70.97
2018-12-22T13:45:38.159Z,30.77
2018-12-22T13:50:23.674Z,27.00
2018-12-22T13:55:09.726Z,25.60
2018-12-22T13:59:55.976Z,21.07
2018-12-22T14:04:42.643Z,25.83
2018-12-22T14:09:28.316Z,34.07
2018-12-22T14:14:19.275Z,38.77
2018-12-22T14:19:07.730Z,44.07
2018-12-22T14:24:10.264Z,42.10
2018-12-22T14:28:54.964Z,44.70
2018-12-22T14:33:42.213Z,72.97
2018-12-22T14:38:26.651Z,81.63
2018-12-22T14:43:13.675Z,47.53
2018-12-22T14:47:59.281Z,37.40
2018-12-22T14:52:54.005Z,34.87
2018-12-22T14:57:47.077Z,31.43
2018-12-22T15:02:35.378Z,53.33
2018-12-22T15:07:21.153Z,47.93
2018-12-22T15:12:07.485Z,53.73
2018-12-22T15:16:52.980Z,41.07
2018-12-22T15:21:37.916Z,26.20
2018-12-22T15:26:23.805Z,17.87
2018-12-22T15:31:08.075Z,20.63
2018-12-22T15:35:53.180Z,19.17
2018-12-22T15:40:41.273Z,34.40
2018-12-22T15:45:25.527Z,29.93
2018-12-22T15:50:14.062Z,23.83
2018-12-22T15:54:59.310Z,18.33
2018-12-22T15:59:43.645Z,18.03
2018-12-22T16:04:29.469Z,33.40
2018-12-22T16:09:14.719Z,33.50
2018-12-22T16:14:00.906Z,29.30
2018-12-22T16:18:46.344Z,28.77
2018-12-22T16:23:30.715Z,37.83
2018-12-22T16:28:26.026Z,32.00
2018-12-22T16:33:10.641Z,28.07
2018-12-22T16:37:55.800Z,23.83
2018-12-22T16:42:40.509Z,21.87
2018-12-22T16:47:25.548Z,20.27
2018-12-22T16:52:11.219Z,21.83
2018-12-22T16:56:55.632Z,20.00
2018-12-22T17:01:56.697Z,24.10
2018-12-22T17:06:42.051Z,26.27
2018-12-22T17:11:29.160Z,22.67
2018-12-22T17:16:14.449Z,28.83
2018-12-22T17:21:23.411Z,46.27
2018-12-22T17:26:09.349Z,35.63
2018-12-22T17:30:54.590Z,29.90
2018-12-22T17:35:42.353Z,48.53
2018-12-22T17:40:34.140Z,36.20
2018-12-22T17:45:19.085Z,33.83
2018-12-22T17:50:04.460Z,28.17
2018-12-22T17:54:50.425Z,24.87
2018-12-22T17:59:36.257Z,25.53
2018-12-22T18:04:22.116Z,26.57
2018-12-22T18:09:08.182Z,30.00
2018-12-22T18:13:52.529Z,30.57
2018-12-22T18:18:38.242Z,29.87
2018-12-22T18:23:23.671Z,20.37
2018-12-22T18:28:09.219Z,19.60
2018-12-22T18:32:54.817Z,34.93
2018-12-22T18:37:39.704Z,23.50
2018-12-22T18:42:26.218Z,18.63
2018-12-22T18:47:10.634Z,25.83
2018-12-22T18:51:55.679Z,19.07
2018-12-22T18:56:40.976Z,34.13
2018-12-22T19:01:25.908Z,30.13
2018-12-22T19:06:11.069Z,37.63
2018-12-22T19:11:00.890Z,28.13
2018-12-22T19:15:46.840Z,35.87
2018-12-22T19:20:41.762Z,50.80
2018-12-22T19:25:26.933Z,47.50
2018-12-22T19:30:13.367Z,47.23
2018-12-22T19:34:59.208Z,40.80
2018-12-22T19:39:45.033Z,35.43
2018-12-22T19:44:32.210Z,33.60
2018-12-22T19:49:18.585Z,31.57
2018-12-22T19:54:02.936Z,34.97
2018-12-22T19:58:47.849Z,36.27
2018-12-22T20:03:33.548Z,37.30
2018-12-22T20:08:18.322Z,38.33
2018-12-22T20:13:04.273Z,31.93
2018-12-22T20:17:48.650Z,33.53
2018-12-22T20:22:36.349Z,37.80
2018-12-22T20:27:21.625Z,31.50
2018-12-22T20:32:06.236Z,26.07
2018-12-22T20:36:52.163Z,27.60
2018-12-22T20:41:37.357Z,25.90
2018-12-22T20:46:23.318Z,29.00
2018-12-22T20:51:07.762Z,23.73
2018-12-22T20:55:57.022Z,28.00
2018-12-22T21:00:45.179Z,26.50
2018-12-22T21:05:34.110Z,24.07
2018-12-22T21:10:19.652Z,19.97
2018-12-22T21:15:07.273Z,17.77
2018-12-22T21:19:52.808Z,20.43
2018-12-22T21:24:38.156Z,18.47
2018-12-22T21:29:23.088Z,20.53
2018-12-22T21:34:12.885Z,19.23
2018-12-22T21:38:57.105Z,17.67
2018-12-22T21:43:44.131Z,15.40
2018-12-22T21:48:29.134Z,13.03
2018-12-22T21:53:15.128Z,10.43
2018-12-22T21:57:59.454Z,12.53
2018-12-22T22:02:46.087Z,11.00
2018-12-22T22:07:31.326Z,8.77
2018-12-22T22:12:16.899Z,8.00
2018-12-22T22:17:07.958Z,8.73
2018-12-22T22:21:54.258Z,10.67
2018-12-22T22:26:38.864Z,14.23
2018-12-22T22:31:24.988Z,13.30
2018-12-22T22:36:10.299Z,10.90
2018-12-22T22:40:56.029Z,12.00
2018-12-22T22:45:40.367Z,10.47
2018-12-22T22:50:26.593Z,11.20
2018-12-22T22:55:10.972Z,10.50
2018-12-22T22:59:55.214Z,9.70
2018-12-22T23:04:40.906Z,12.13
2018-12-22T23:09:27.524Z,10.93
2018-12-22T23:14:12.782Z,12.90
2018-12-22T23:18:58.538Z,12.50
2018-12-22T23:23:43.897Z,11.40
2018-12-22T23:28:29.404Z,16.67
2018-12-22T23:33:15.846Z,8.63
2018-12-22T23:38:00.764Z,9.73
2018-12-22T23:42:46.501Z,15.00
2018-12-22T23:47:31.476Z,15.83
2018-12-22T23:52:17.877Z,7.57
2018-12-22T23:57:02.241Z,6.57
